createdAt,value
2019-03-20T00:03:07.482Z,96.32
2019-03-20T00:08:06.991Z,96.21
2019-03-20T00:13:06.859Z,95.99
2019-03-20T00:18:07.318Z,96.87
2019-03-20T00:23:06.868Z,96.44
2019-03-20T00:27:07.344Z,96.16
2019-03-20T00:32:06.544Z,95.91
2019-03-20T00:37:07.121Z,97.39
2019-03-20T00:42:06.816Z,98.68
2019-03-20T00:47:06.990Z,97.95
2019-03-20T00:52:06.587Z,97.98
2019-03-20T00:57:07.198Z,98.57
2019-03-20T01:01:06.594Z,99.02
2019-03-20T01:06:07.075Z,98.65
2019-03-20T01:11:07.100Z,98.27
2019-03-20T01:16:07.276Z,98.13
2019-03-20T01:21:06.851Z,97.28
2019-03-20T01:26:07.444Z,96.78
2019-03-20T01:31:06.701Z,95.27
2019-03-20T01:36:07.219Z,94.33
2019-03-20T01:40:07.013Z,93.79
2019-03-20T01:45:08.097Z,93.76
2019-03-20T01:50:06.694Z,92.93
2019-03-20T01:55:07.088Z,93.47
2019-03-20T02:00:09.091Z,94.12
2019-03-20T02:05:11.428Z,94.83
2019-03-20T02:10:07.355Z,94.15
2019-03-20T02:14:07.866Z,93.96
2019-03-20T02:19:07.227Z,93.73
2019-03-20T02:24:06.824Z,94.1
2019-03-20T02:29:07.276Z,94.12
2019-03-20T02:34:07.427Z,94.61
2019-03-20T02:39:07.337Z,93.84
2019-03-20T02:44:06.755Z,94.73
2019-03-20T02:48:07.104Z,94.09
2019-03-20T02:53:06.685Z,95.05
2019-03-20T02:58:07.256Z,95.67
2019-03-20T03:03:06.632Z,95.73
2019-03-20T03:08:07.273Z,95.22
2019-03-20T03:13:07.208Z,96.21
2019-03-20T03:18:06.633Z,95.49
2019-03-20T03:22:07.225Z,96.11
2019-03-20T03:27:06.822Z,96.51
2019-03-20T03:32:07.289Z,96.8
2019-03-20T03:37:06.936Z,96.36
2019-03-20T03:42:07.009Z,96.51
2019-03-20T03:47:06.240Z,97.05
2019-03-20T03:51:07.097Z,98.68
2019-03-20T03:56:06.756Z,98.92
2019-03-20T04:01:06.906Z,99.05
2019-03-20T04:06:06.278Z,98.96
2019-03-20T04:11:06.679Z,98.95
2019-03-20T04:16:06.674Z,99.38
2019-03-20T04:21:06.647Z,99.62
2019-03-20T04:26:06.883Z,99.27
2019-03-20T04:30:08.057Z,99.24
2019-03-20T04:35:06.887Z,99.09
2019-03-20T04:40:06.907Z,99.27
2019-03-20T04:45:09.066Z,99.43
2019-03-20T04:50:07.505Z,99.93
2019-03-20T04:55:07.155Z,99.88
2019-03-20T05:00:08.119Z,99.97
2019-03-20T05:04:07.006Z,99.97
2019-03-20T05:09:06.944Z,99.98
2019-03-20T05:14:06.591Z,99.93
2019-03-20T05:19:07.173Z,100.02
2019-03-20T05:24:06.880Z,100.95
2019-03-20T05:29:07.246Z,101.25
2019-03-20T05:34:06.747Z,101.11
2019-03-20T05:39:07.814Z,100.98
2019-03-20T05:43:06.735Z,100.88
2019-03-20T05:48:07.183Z,100.78
2019-03-20T05:53:06.729Z,100.42
2019-03-20T05:58:07.284Z,99.69
2019-03-20T06:03:07.376Z,97.86
2019-03-20T06:08:07.257Z,96.49
2019-03-20T06:13:07.224Z,89.78
2019-03-20T06:17:07.062Z,91.77
2019-03-20T06:22:07.151Z,93.09
2019-03-20T06:27:06.708Z,92.79
2019-03-20T06:32:07.277Z,89.28
2019-03-20T06:37:06.849Z,87.08
2019-03-20T06:42:06.806Z,86.15
2019-03-20T06:47:07.097Z,86.3
2019-03-20T06:51:06.533Z,87.65
2019-03-20T06:56:07.047Z,83.49
2019-03-20T07:01:06.960Z,80.73
2019-03-20T07:06:07.539Z,79.1
2019-03-20T07:11:06.539Z,79.07
2019-03-20T07:16:06.815Z,80.11
2019-03-20T07:21:07.142Z,75.82
2019-03-20T07:25:06.935Z,75.37
2019-03-20T07:30:07.766Z,74.52
2019-03-20T07:35:07.075Z,76.68
2019-03-20T07:40:07.091Z,76.36
2019-03-20T07:45:08.186Z,77.13
2019-03-20T07:50:06.949Z,76.26
2019-03-20T07:54:07.562Z,72.78
2019-03-20T07:59:07.172Z,73.2
2019-03-20T08:04:06.798Z,74.41
2019-03-20T08:09:07.852Z,74.31
2019-03-20T08:14:07.446Z,72.69
2019-03-20T08:19:06.832Z,71.39
2019-03-20T08:24:07.390Z,71.69
2019-03-20T08:29:07.002Z,69.45
2019-03-20T08:33:07.227Z,66.68
2019-03-20T08:38:18.882Z,65.05
2019-03-20T08:43:07.218Z,65.74
2019-03-20T08:48:06.493Z,64.35
2019-03-20T08:53:07.058Z,63.99
2019-03-20T08:58:06.555Z,60.98
2019-03-20T09:03:06.563Z,59.62
2019-03-20T09:08:07.179Z,61.05
2019-03-20T09:12:07.199Z,58.78
2019-03-20T09:17:07.441Z,59.77
2019-03-20T09:22:07.023Z,60.25
2019-03-20T09:27:06.689Z,59.46
2019-03-20T09:32:07.058Z,58.23
2019-03-20T09:37:06.671Z,61.07
2019-03-20T09:41:06.630Z,57.08
2019-03-20T09:46:06.686Z,56.87
2019-03-20T09:51:07.340Z,58.31
2019-03-20T09:56:06.907Z,60.76
2019-03-20T10:01:06.794Z,57.68
2019-03-20T10:06:07.537Z,59.74
2019-03-20T10:11:06.655Z,59.09
2019-03-20T10:15:08.638Z,55.21
2019-03-20T10:20:07.531Z,57.46
2019-03-20T10:25:07.137Z,57.34
2019-03-20T10:30:07.846Z,56.36
2019-03-20T10:35:07.302Z,58.04
2019-03-20T10:40:07.302Z,56.13
2019-03-20T10:45:07.713Z,55.34
2019-03-20T10:50:06.605Z,57.76
2019-03-20T10:54:07.099Z,55.37
2019-03-20T10:59:06.728Z,58.66
2019-03-20T11:04:07.472Z,57.72
2019-03-20T11:09:18.832Z,56.24
2019-03-20T11:14:06.439Z,54.45
2019-03-20T11:19:06.855Z,53.71
2019-03-20T11:24:07.424Z,53.6
2019-03-20T11:28:06.908Z,55.1
2019-03-20T11:33:06.658Z,54.63
2019-03-20T11:38:07.279Z,53.34
2019-03-20T11:43:07.305Z,53.92
2019-03-20T11:48:06.985Z,55.18
2019-03-20T11:53:06.513Z,54.09
2019-03-20T11:58:07.121Z,54.18
2019-03-20T12:02:06.853Z,53.89
2019-03-20T12:07:07.389Z,56.53
2019-03-20T12:12:07.463Z,52.75
2019-03-20T12:17:07.027Z,56.37
2019-03-20T12:22:06.554Z,57.4
2019-03-20T12:27:16.149Z,55.63
2019-03-20T12:32:06.889Z,56.22
2019-03-20T12:36:07.361Z,56.66
2019-03-20T12:41:07.448Z,53.35
2019-03-20T12:46:06.841Z,56.43
2019-03-20T12:51:07.434Z,55.71
2019-03-20T12:56:07.013Z,53.3
2019-03-20T13:01:07.044Z,54.92
2019-03-20T13:06:06.607Z,56.23
2019-03-20T13:11:06.565Z,56.84
2019-03-20T13:15:08.286Z,55.38
2019-03-20T13:20:07.355Z,56.98
2019-03-20T13:25:06.882Z,56.08
2019-03-20T13:30:08.546Z,54.54
2019-03-20T13:35:07.098Z,54.23
2019-03-20T13:40:15.108Z,53.86
2019-03-20T13:44:06.574Z,54.9
2019-03-20T13:49:06.603Z,52.97
2019-03-20T13:54:07.462Z,54.73
2019-03-20T13:59:06.757Z,54.24
2019-03-20T14:04:06.860Z,51.41
2019-03-20T14:09:07.804Z,53.61
2019-03-20T14:14:07.537Z,55.31
2019-03-20T14:18:06.721Z,53.01
2019-03-20T14:23:07.584Z,52.67
2019-03-20T14:28:07.156Z,51.63
2019-03-20T14:33:07.402Z,53.87
2019-03-20T14:38:06.926Z,53.02
2019-03-20T14:43:07.158Z,51.83
2019-03-20T14:48:06.746Z,53.02
2019-03-20T14:53:07.329Z,52.46
2019-03-20T14:57:06.352Z,52.2
2019-03-20T15:02:07.159Z,52.38
2019-03-20T15:07:06.702Z,53.16
2019-03-20T15:12:06.724Z,52.12
2019-03-20T15:17:07.171Z,54.99
2019-03-20T15:22:06.354Z,54.02
2019-03-20T15:26:07.137Z,52.13
2019-03-20T15:31:06.603Z,53.68
2019-03-20T15:36:07.413Z,53.35
2019-03-20T15:41:06.389Z,54.67
2019-03-20T15:46:07.055Z,55.21
2019-03-20T15:51:06.434Z,55.53
2019-03-20T15:56:07.306Z,57.4
2019-03-20T16:00:08.647Z,57.93
2019-03-20T16:05:06.529Z,59.04
2019-03-20T16:10:06.232Z,58.73
2019-03-20T16:15:08.394Z,60.13
2019-03-20T16:20:06.346Z,61.33
2019-03-20T16:25:07.403Z,61.91
2019-03-20T16:30:08.688Z,64.17
2019-03-20T16:34:06.809Z,65.25
2019-03-20T16:39:07.545Z,66.22
2019-03-20T16:44:07.515Z,67.89
2019-03-20T16:49:07.428Z,67.74
2019-03-20T16:54:06.813Z,68.57
2019-03-20T17:04:06.526Z,71.69
2019-03-20T17:09:07.277Z,73.46
2019-03-20T17:14:07.269Z,73.2
2019-03-20T17:19:06.578Z,71.95
2019-03-20T17:24:06.534Z,70.01
2019-03-20T17:28:06.780Z,69.7
2019-03-20T17:33:07.475Z,69.94
2019-03-20T17:38:07.337Z,72.15
2019-03-20T17:43:06.595Z,72.16
2019-03-20T17:48:06.432Z,73.03
2019-03-20T17:53:07.360Z,72.72
2019-03-20T17:58:07.080Z,72.94
2019-03-20T18:02:06.590Z,71.3
2019-03-20T18:07:07.263Z,70.82
2019-03-20T18:12:07.073Z,70.47
2019-03-20T18:17:06.706Z,70.37
2019-03-20T18:22:07.047Z,71
2019-03-20T18:27:07.036Z,71.82
2019-03-20T18:32:07.508Z,72.58
2019-03-20T18:37:07.142Z,72.39
2019-03-20T18:41:06.738Z,72.04
2019-03-20T18:46:06.811Z,73.11
2019-03-20T18:51:07.819Z,73.13
2019-03-20T18:56:07.217Z,73.46
2019-03-20T19:01:07.074Z,73.38
2019-03-20T19:06:07.193Z,73.78
2019-03-20T19:11:07.638Z,74.54
2019-03-20T19:15:09.037Z,74.39
2019-03-20T19:20:06.999Z,74.97
2019-03-20T19:25:07.087Z,74.82
2019-03-20T19:30:07.904Z,74.87
2019-03-20T19:35:07.518Z,75.1
2019-03-20T19:40:06.557Z,76.15
2019-03-20T19:44:06.986Z,76.13
2019-03-20T19:49:07.494Z,77.28
2019-03-20T19:54:07.156Z,77.78
2019-03-20T19:59:06.817Z,77.97
2019-03-20T20:04:07.038Z,78.07
2019-03-20T20:09:07.208Z,78.8
2019-03-20T20:14:07.033Z,78.16
2019-03-20T20:18:07.450Z,78.51
2019-03-20T20:23:06.908Z,78.11
2019-03-20T20:28:07.028Z,78.04
2019-03-20T20:33:07.503Z,78.45
2019-03-20T20:38:07.117Z,79.06
2019-03-20T20:43:07.204Z,80.03
2019-03-20T20:48:07.201Z,79.09
2019-03-20T20:52:06.688Z,76.52
2019-03-20T20:57:06.719Z,77.19
2019-03-20T21:02:06.697Z,78.84
2019-03-20T21:07:07.282Z,79.95
2019-03-20T21:12:07.317Z,79.61
2019-03-20T21:17:06.945Z,79.57
2019-03-20T21:22:06.631Z,81.06
2019-03-20T21:26:06.885Z,80.86
2019-03-20T21:31:06.310Z,81.16
2019-03-20T21:36:06.970Z,79.42
2019-03-20T21:41:06.884Z,79.98
2019-03-20T21:46:07.453Z,80.38
2019-03-20T21:51:07.156Z,80.53
2019-03-20T21:56:06.780Z,81.09
2019-03-20T22:01:07.358Z,82.05
2019-03-20T22:05:06.951Z,81.54
2019-03-20T22:10:06.935Z,80.82
2019-03-20T22:15:08.108Z,81.6
2019-03-20T22:20:07.067Z,78.69
2019-03-20T22:25:06.798Z,78.19
2019-03-20T22:30:08.668Z,77.79
2019-03-20T22:35:06.902Z,77.82
2019-03-20T22:40:07.052Z,79.7
2019-03-20T22:44:06.277Z,82.72
2019-03-20T22:49:06.438Z,83.64
2019-03-20T22:54:07.108Z,83.64
2019-03-20T22:59:06.788Z,82.5
2019-03-20T23:04:07.095Z,82.54
2019-03-20T23:09:07.149Z,83.36
2019-03-20T23:14:07.647Z,85.86
2019-03-20T23:18:06.730Z,86.62
2019-03-20T23:23:07.423Z,85.37
2019-03-20T23:28:07.079Z,83.55
2019-03-20T23:33:06.528Z,83.81
2019-03-20T23:38:07.195Z,82.38
2019-03-20T23:43:07.271Z,84.68
2019-03-20T23:48:07.342Z,85.63
2019-03-20T23:52:06.849Z,85.46
2019-03-20T23:57:07.512Z,85.43
